Time;durP1;ratioP1;P1;durP2;ratioP2;P2;SDS_P1;SDS_P2;PMS_P1;PMS_P2;Temp;Humidity;BMP_temperature;BMP_pressure;BME280_temperature;BME280_humidity;BME280_pressure;Samples;Min_cycle;Max_cycle;Signal;HPM_P1;HPM_P2
2022/11/07 00:02:12;;;;;;;16.08;11.40;;;;;;;6.89;79.07;100570.81;7393574;19;20098;-69
2022/11/07 00:04:40;;;;;;;14.45;10.15;;;;;;;6.88;79.32;100563.88;7393176;19;20027;-68
2022/11/07 00:07:09;;;;;;;15.30;10.10;;;;;;;6.88;79.31;100569.09;7393211;19;20026;-69
2022/11/07 00:09:38;;;;;;;13.93;10.02;;;;;;;6.90;79.49;100561.25;7395040;19;20035;-69
2022/11/07 00:12:08;;;;;;;12.38;9.35;;;;;;;6.91;79.65;100565.59;7394901;19;20031;-69
2022/11/07 00:14:36;;;;;;;15.55;10.48;;;;;;;6.90;79.72;100567.34;7393257;19;20019;-69
2022/11/07 00:17:09;;;;;;;14.93;9.82;;;;;;;6.91;79.51;100558.63;7392486;19;20018;-69
2022/11/07 00:19:38;;;;;;;13.30;9.55;;;;;;;6.92;79.77;100562.97;7394406;19;20014;-69
2022/11/07 00:22:06;;;;;;;15.00;9.88;;;;;;;6.94;79.78;100563.81;7394690;19;20015;-68
2022/11/07 00:24:35;;;;;;;11.43;8.65;;;;;;;6.96;79.52;100567.28;7392648;19;20081;-69
2022/11/07 00:27:03;;;;;;;13.60;9.15;;;;;;;6.97;79.67;100563.78;7392512;19;20022;-69
2022/11/07 00:29:32;;;;;;;11.48;9.20;;;;;;;6.99;79.93;100562.03;7394043;19;20481;-69
2022/11/07 00:32:00;;;;;;;12.77;9.05;;;;;;;7.01;79.86;100554.19;7392520;19;20027;-69
2022/11/07 00:34:31;;;;;;;13.57;9.52;;;;;;;7.02;79.88;100555.91;7392519;19;20036;-68
2022/11/07 00:37:00;;;;;;;12.35;8.70;;;;;;;7.04;79.86;100555.88;7392666;19;20018;-68
2022/11/07 00:39:28;;;;;;;14.18;9.57;;;;;;;7.05;79.48;100553.28;7393756;19;20015;-69
2022/11/07 00:41:57;;;;;;;14.52;9.60;;;;;;;7.05;79.62;100537.63;7392127;19;20031;-69
2022/11/07 00:44:25;;;;;;;14.68;9.32;;;;;;;7.07;79.79;100548.06;7393850;19;20026;-68
2022/11/07 00:46:53;;;;;;;11.75;8.85;;;;;;;7.07;79.38;100551.50;7400988;19;20035;-68
2022/11/07 00:49:22;;;;;;;13.70;10.10;;;;;;;7.09;79.60;100557.59;7401287;19;20086;-69
2022/11/07 00:51:53;;;;;;;14.77;9.45;;;;;;;7.11;79.48;100539.31;7401950;19;20027;-68
2022/11/07 00:54:21;;;;;;;15.48;10.15;;;;;;;7.12;79.66;100536.66;7398968;19;20018;-68
2022/11/07 00:56:50;;;;;;;13.90;8.95;;;;;;;7.14;79.84;100531.44;7401057;19;20392;-68
2022/11/07 00:59:18;;;;;;;12.85;8.82;;;;;;;7.15;79.69;100536.66;7398445;19;20018;-68
2022/11/07 01:01:47;;;;;;;10.68;8.90;;;;;;;7.17;79.57;100553.13;7397971;19;20427;-68
2022/11/07 01:06:59;;;;;;;11.52;8.85;;;;;;;7.23;79.59;100560.06;7400920;19;20043;-68
2022/11/07 01:09:28;;;;;;;13.27;8.50;;;;;;;7.25;79.42;100558.25;7400882;19;20039;-69
2022/11/07 01:11:56;;;;;;;15.15;9.38;;;;;;;7.29;79.47;100549.53;7400643;19;20022;-69
2022/11/07 01:14:25;;;;;;;11.48;8.45;;;;;;;7.32;79.59;100539.06;7397847;19;20039;-69
2022/11/07 01:16:54;;;;;;;9.57;8.35;;;;;;;7.33;79.36;100543.41;7400377;19;20022;-68
2022/11/07 01:19:22;;;;;;;10.48;8.30;;;;;;;7.36;79.32;100547.72;7400337;19;20419;-69
2022/11/07 01:21:51;;;;;;;11.40;8.25;;;;;;;7.39;79.20;100552.03;7397821;19;20026;-69
2022/11/07 01:24:22;;;;;;;10.88;8.70;;;;;;;7.41;79.31;100548.53;7398516;19;20018;-68
2022/11/07 01:26:51;;;;;;;13.45;8.65;;;;;;;7.44;79.21;100550.25;7397392;19;20485;-68
2022/11/07 01:29:20;;;;;;;9.77;7.78;;;;;;;7.44;79.34;100556.34;7400055;19;20073;-69
2022/11/07 01:31:49;;;;;;;12.95;8.38;;;;;;;7.47;79.03;100558.91;7399901;19;20039;-69
2022/11/07 01:34:20;;;;;;;12.10;8.18;;;;;;;7.48;79.18;100544.97;7397856;19;20018;-69
2022/11/07 01:36:48;;;;;;;10.90;8.45;;;;;;;7.50;79.13;100550.16;7398693;19;20019;-68
2022/11/07 01:39:17;;;;;;;10.27;8.07;;;;;;;7.51;79.00;100551.91;7397570;19;20039;-68
2022/11/07 01:41:48;;;;;;;11.93;8.43;;;;;;;7.52;79.13;100553.63;7399260;19;20429;-68
2022/11/07 01:44:46;;;;;;;11.25;8.43;;;;;;;7.53;79.21;100567.53;7396780;19;20503;-68
2022/11/07 01:47:15;;;;;;;10.18;7.95;;;;;;;7.54;78.88;100566.66;7399384;19;20023;-69
2022/11/07 01:49:45;;;;;;;9.77;8.23;;;;;;;7.54;78.95;100561.44;7397043;19;20093;-69
2022/11/07 01:52:17;;;;;;;13.20;8.82;;;;;;;7.51;78.99;100567.56;7398794;19;20537;-68
2022/11/07 01:54:53;;;;;;;11.10;8.82;;;;;;;7.52;79.13;100565.81;7396847;19;20077;-68
2022/11/07 01:57:28;;;;;;;13.60;8.38;;;;;;;7.49;79.20;100562.38;7397221;19;20018;-68
2022/11/07 02:00:01;;;;;;;9.25;7.93;;;;;;;7.48;78.99;100549.31;7399343;19;20019;-69
2022/11/07 02:02:30;;;;;;;10.25;8.60;;;;;;;7.44;79.12;100553.72;7398640;19;20486;-69
2022/11/07 02:05:01;;;;;;;10.90;8.23;;;;;;;7.40;79.44;100553.78;7396443;19;20458;-69
2022/11/07 02:07:30;;;;;;;15.32;7.60;;;;;;;7.36;79.41;100552.09;7399004;19;20027;-68
2022/11/07 02:09:59;;;;;;;11.75;8.52;;;;;;;7.33;79.33;100556.44;7398529;19;20082;-69
2022/11/07 02:12:31;;;;;;;11.07;8.57;;;;;;;7.29;79.60;100559.97;7398604;19;20022;-69
2022/11/07 02:14:59;;;;;;;11.52;8.32;;;;;;;7.25;80.04;100558.25;7397257;19;20022;-69
2022/11/07 02:17:28;;;;;;;11.43;8.88;;;;;;;7.22;79.74;100553.09;7396349;19;20022;-69
2022/11/07 02:19:57;;;;;;;12.27;9.05;;;;;;;7.15;80.21;100547.09;7396316;19;20022;-69
2022/11/07 02:22:36;;;;;;;13.27;8.30;;;;;;;7.12;80.63;100539.28;7398150;19;20023;-69
2022/11/07 02:25:11;;;;;;;11.50;8.25;;;;;;;7.09;80.49;100548.88;7396177;19;20070;-69
2022/11/07 02:27:42;;;;;;;13.82;9.65;;;;;;;7.08;80.67;100544.56;7398519;19;20015;-69
2022/11/07 02:30:13;;;;;;;11.27;8.18;;;;;;;7.05;80.70;100548.06;7398198;19;20038;-69
2022/11/07 02:32:42;;;;;;;13.00;8.55;;;;;;;7.03;80.99;100546.34;7397574;19;20022;-69
2022/11/07 02:35:34;;;;;;;11.85;8.82;;;;;;;7.04;81.41;100559.38;7395443;19;20421;-69
2022/11/07 02:38:03;;;;;;;12.75;8.80;;;;;;;7.01;81.09;100552.44;7397296;19;20419;-69
2022/11/07 02:40:35;;;;;;;11.73;8.60;;;;;;;7.02;81.07;100561.13;7395838;19;20108;-69
2022/11/07 02:43:06;;;;;;;13.15;8.95;;;;;;;7.02;81.15;100553.31;7396876;19;20528;-69
2022/11/07 02:45:37;;;;;;;9.82;8.23;;;;;;;7.01;81.24;100551.56;7397147;19;20014;-69
2022/11/07 02:48:06;;;;;;;11.00;8.35;;;;;;;7.03;81.19;100556.75;7397171;19;20462;-69
2022/11/07 02:50:34;;;;;;;12.82;8.73;;;;;;;7.02;81.42;100553.31;7396913;19;20485;-69
2022/11/07 02:53:03;;;;;;;13.07;9.00;;;;;;;7.02;81.52;100555.91;7396632;19;20035;-69
2022/11/07 02:55:34;;;;;;;10.50;8.05;;;;;;;7.03;81.34;100552.44;7395588;19;20028;-70
2022/11/07 02:58:03;;;;;;;11.90;7.97;;;;;;;7.04;81.31;100553.28;7395749;19;20018;-70
2022/11/07 03:00:31;;;;;;;12.75;9.30;;;;;;;7.06;81.59;100556.75;7397031;19;20022;-70
2022/11/07 03:02:59;;;;;;;11.75;8.95;;;;;;;7.05;81.81;100561.13;7396384;19;20014;-70
2022/11/07 03:05:28;;;;;;;11.00;8.02;;;;;;;7.06;81.59;100562.81;7394567;19;20018;-70
2022/11/07 03:07:56;;;;;;;10.27;8.43;;;;;;;7.07;81.54;100571.53;7394932;19;20035;-70
2022/11/07 03:10:25;;;;;;;10.25;8.48;;;;;;;7.07;81.60;100569.78;7394996;19;20022;-70
2022/11/07 03:12:56;;;;;;;12.18;8.85;;;;;;;7.08;81.48;100576.72;7396045;19;20252;-70
2022/11/07 03:15:24;;;;;;;10.07;8.43;;;;;;;7.09;81.40;100573.25;7395936;19;20039;-71
2022/11/07 03:17:53;;;;;;;10.00;8.45;;;;;;;7.09;81.65;100573.25;7396640;19;20035;-69
2022/11/07 03:20:21;;;;;;;11.57;8.35;;;;;;;7.11;81.55;100578.44;7394370;19;20572;-70
2022/11/07 03:22:50;;;;;;;9.18;7.95;;;;;;;7.11;81.72;100584.50;7395728;19;20010;-68
2022/11/07 03:25:18;;;;;;;11.20;8.27;;;;;;;7.12;81.64;100585.38;7396952;19;20026;-69
2022/11/07 03:27:48;;;;;;;11.52;8.70;;;;;;;7.12;81.50;100585.38;7397131;19;20031;-69
2022/11/07 03:30:19;;;;;;;11.63;8.07;;;;;;;7.12;81.58;100594.06;7396889;19;20023;-68
2022/11/07 03:32:48;;;;;;;10.80;8.60;;;;;;;7.14;81.43;100594.03;7396100;19;20018;-68
2022/11/07 03:35:16;;;;;;;14.02;8.35;;;;;;;7.12;81.69;100596.69;7394744;19;20019;-69
2022/11/07 03:37:47;;;;;;;11.85;8.20;;;;;;;7.13;81.64;100608.00;7395470;19;20043;-70
2022/11/07 03:40:16;;;;;;;12.60;8.75;;;;;;;7.11;81.48;100609.75;7396182;19;20021;-69
2022/11/07 03:42:50;;;;;;;12.50;9.10;;;;;;;7.06;81.57;100611.53;7393992;19;20022;-69
2022/11/07 03:45:21;;;;;;;11.15;8.43;;;;;;;7.09;81.51;100619.31;7395199;19;20509;-69
2022/11/07 03:47:50;;;;;;;10.20;8.50;;;;;;;7.06;81.44;100624.56;7395315;19;20392;-69
2022/11/07 03:50:21;;;;;;;12.00;8.20;;;;;;;7.04;81.83;100626.31;7393432;19;20019;-69
2022/11/07 03:52:50;;;;;;;10.95;7.53;;;;;;;6.99;81.71;100619.41;7394186;19;20380;-69
2022/11/07 03:55:19;;;;;;;11.93;9.02;;;;;;;6.99;81.90;100627.25;7393093;19;20074;-69
2022/11/07 03:57:48;;;;;;;12.70;9.02;;;;;;;6.97;81.91;100631.59;7393389;19;20018;-70
2022/11/07 04:00:18;;;;;;;11.45;8.73;;;;;;;6.95;81.93;100627.25;7393438;19;20023;-69
2022/11/07 04:02:56;;;;;;;10.80;8.57;;;;;;;6.92;81.95;100628.16;7393439;19;20041;-69
2022/11/07 04:05:24;;;;;;;11.13;8.65;;;;;;;6.90;81.96;100629.94;7393528;19;20026;-69
2022/11/07 04:07:53;;;;;;;11.20;8.43;;;;;;;6.88;81.79;100633.44;7393068;19;20027;-70
2022/11/07 04:10:21;;;;;;;10.68;8.43;;;;;;;6.86;82.08;100643.84;7394344;19;20035;-69
2022/11/07 04:18:14;;;;;;;11.52;9.00;;;;;;;6.78;82.03;100648.28;7394854;19;20014;-69
2022/11/07 04:20:42;;;;;;;13.02;8.15;;;;;;;6.75;82.20;100645.69;7400122;19;20074;-69
2022/11/07 04:23:11;;;;;;;13.70;8.77;;;;;;;6.72;82.37;100650.94;7401236;19;20104;-69
2022/11/07 04:28:20;;;;;;;13.45;9.10;;;;;;;6.65;82.35;100645.75;7402605;19;20010;-69
2022/11/07 04:30:48;;;;;;;10.98;9.00;;;;;;;6.63;82.18;100644.91;7401827;19;20078;-69
2022/11/07 04:33:19;;;;;;;10.70;8.65;;;;;;;6.61;82.47;100653.59;7400592;19;20078;-69
2022/11/07 04:35:48;;;;;;;10.90;8.85;;;;;;;6.56;82.26;100645.84;7400292;19;20046;-69
2022/11/07 04:38:16;;;;;;;13.40;8.80;;;;;;;6.54;82.28;100660.59;7401300;19;20098;-69
2022/11/07 04:40:45;;;;;;;10.57;8.10;;;;;;;6.49;82.65;100663.22;7401194;19;20031;-70
2022/11/07 04:43:13;;;;;;;10.88;8.43;;;;;;;6.46;82.59;100671.09;7400461;19;20086;-69
2022/11/07 04:45:42;;;;;;;12.40;9.15;;;;;;;6.44;82.55;100677.19;7401183;19;20018;-69
2022/11/07 04:48:11;;;;;;;12.40;9.73;;;;;;;6.42;82.73;100681.53;7397973;19;20565;-69
2022/11/07 04:50:43;;;;;;;13.05;7.88;;;;;;;6.39;82.60;100673.75;7400917;19;20019;-69
2022/11/07 04:53:14;;;;;;;10.50;8.32;;;;;;;6.36;82.62;100680.69;7400692;19;20345;-70
2022/11/07 04:55:43;;;;;;;12.27;8.77;;;;;;;6.34;83.00;100682.44;7399626;19;20014;-70
2022/11/07 04:58:12;;;;;;;11.60;8.70;;;;;;;6.33;82.76;100685.03;7400966;19;20021;-69
2022/11/07 05:00:41;;;;;;;11.48;8.23;;;;;;;6.32;82.93;100678.97;7400590;19;20082;-70
2022/11/07 05:03:10;;;;;;;10.15;8.32;;;;;;;6.31;83.08;100686.81;7400172;19;20089;-70
2022/11/07 05:05:38;;;;;;;11.55;9.07;;;;;;;6.29;83.31;100694.66;7397913;19;20086;-70
2022/11/07 05:08:10;;;;;;;11.63;9.27;;;;;;;6.29;83.12;100683.34;7400073;19;20501;-71
2022/11/07 05:10:39;;;;;;;11.75;8.45;;;;;;;6.28;83.26;100685.09;7399951;19;20014;-71
2022/11/07 05:13:07;;;;;;;11.07;8.38;;;;;;;6.29;83.25;100686.81;7399497;19;20102;-71
2022/11/07 05:15:36;;;;;;;11.75;8.32;;;;;;;6.28;83.25;100682.47;7399008;19;20544;-70
2022/11/07 05:18:04;;;;;;;11.05;8.20;;;;;;;6.27;83.09;100680.75;7397538;19;20086;-70
2022/11/07 05:20:34;;;;;;;13.50;9.30;;;;;;;6.26;83.18;100680.75;7399624;19;20082;-71
2022/11/07 05:25:48;;;;;;;11.43;8.57;;;;;;;6.18;83.34;100679.03;7399435;19;20013;-70
2022/11/07 05:28:22;;;;;;;10.20;7.90;;;;;;;6.16;83.30;100687.75;7399192;19;20078;-69
2022/11/07 05:30:50;;;;;;;10.82;8.18;;;;;;;6.15;83.26;100691.22;7398208;19;20023;-69
2022/11/07 05:33:20;;;;;;;10.05;8.18;;;;;;;6.12;83.51;100691.25;7396590;19;20082;-69
2022/11/07 05:35:49;;;;;;;9.68;7.82;;;;;;;6.10;83.61;100695.59;7396665;19;20027;-69
2022/11/07 05:38:17;;;;;;;12.38;8.15;;;;;;;6.07;83.84;100690.41;7398639;19;20396;-69
2022/11/07 05:40:48;;;;;;;10.02;8.10;;;;;;;6.05;83.68;100699.94;7396371;19;20078;-70
2022/11/07 05:43:17;;;;;;;13.05;9.05;;;;;;;6.02;83.73;100688.66;7398509;19;20545;-69
2022/11/07 05:45:45;;;;;;;10.35;8.48;;;;;;;6.01;83.74;100699.94;7398921;19;20541;-69
2022/11/07 05:48:15;;;;;;;14.27;9.32;;;;;;;6.02;83.74;100700.81;7399008;19;20040;-70
2022/11/07 05:50:44;;;;;;;12.02;9.38;;;;;;;6.01;84.06;100699.94;7396256;19;20059;-69
2022/11/07 05:53:12;;;;;;;11.82;8.85;;;;;;;6.02;84.05;100714.69;7396462;19;20137;-69
2022/11/07 05:55:40;;;;;;;12.15;9.05;;;;;;;6.03;84.01;100715.59;7396651;19;20094;-69
2022/11/07 05:58:13;;;;;;;14.30;9.32;;;;;;;6.04;84.38;100709.50;7398048;19;20544;-68
2022/11/07 06:00:42;;;;;;;11.20;8.73;;;;;;;6.02;84.26;100714.69;7397753;19;20066;-69
2022/11/07 06:03:10;;;;;;;11.32;8.10;;;;;;;6.07;84.22;100725.13;7396158;19;20501;-69
2022/11/07 06:05:40;;;;;;;11.02;8.27;;;;;;;6.09;84.45;100719.88;7395334;19;20006;-71
2022/11/07 06:08:10;;;;;;;10.35;8.10;;;;;;;6.11;84.60;100723.38;7396794;19;20330;-70
2022/11/07 06:10:39;;;;;;;10.80;8.32;;;;;;;6.14;84.37;100725.94;7396036;19;20015;-70
2022/11/07 06:13:13;;;;;;;12.05;7.97;;;;;;;6.18;84.56;100723.34;7394866;19;20014;-70
2022/11/07 06:15:42;;;;;;;10.90;7.43;;;;;;;6.21;84.66;100726.81;7397633;19;20086;-70
2022/11/07 06:18:15;;;;;;;9.63;7.22;;;;;;;6.26;84.52;100728.50;7397222;19;20015;-70
2022/11/07 06:20:44;;;;;;;9.60;7.15;;;;;;;6.30;84.51;100730.22;7393510;19;20091;-70
2022/11/07 06:23:13;;;;;;;12.93;8.30;;;;;;;6.35;84.80;100736.28;7395683;19;20093;-69
2022/11/07 06:25:41;;;;;;;11.15;8.18;;;;;;;6.40;84.45;100727.59;7397129;19;20027;-69
2022/11/07 06:28:16;;;;;;;8.30;6.63;;;;;;;6.45;84.82;100736.25;7395340;19;20090;-69
2022/11/07 06:30:46;;;;;;;8.90;7.15;;;;;;;6.50;84.53;100734.50;7395701;19;20090;-69
2022/11/07 06:33:16;;;;;;;7.55;5.75;;;;;;;6.55;84.48;100737.94;7397085;19;20082;-69
2022/11/07 06:35:46;;;;;;;8.30;6.55;;;;;;;6.61;84.36;100734.41;7395155;19;20360;-68
2022/11/07 06:38:16;;;;;;;7.18;6.38;;;;;;;6.65;84.27;100738.75;7396950;19;20090;-69
2022/11/07 06:40:45;;;;;;;8.07;5.78;;;;;;;6.68;84.01;100743.94;7396985;19;20504;-69
2022/11/07 06:43:18;;;;;;;8.68;6.88;;;;;;;6.72;84.14;100750.00;7394259;19;20476;-68
2022/11/07 06:45:48;;;;;;;9.77;7.22;;;;;;;6.75;83.99;100755.19;7398137;19;20014;-69
2022/11/07 06:48:17;;;;;;;8.60;6.15;;;;;;;6.78;84.14;100750.84;7396895;19;20050;-68
2022/11/07 06:50:45;;;;;;;7.30;6.10;;;;;;;6.81;83.78;100749.94;7395400;19;20074;-70
2022/11/07 06:53:14;;;;;;;8.75;5.68;;;;;;;6.80;83.77;100738.66;7394904;19;20023;-68
2022/11/07 06:55:43;;;;;;;7.68;5.40;;;;;;;6.82;83.72;100757.78;7395091;19;20028;-69
2022/11/07 06:58:11;;;;;;;9.23;6.28;;;;;;;6.83;83.68;100753.41;7396952;19;20074;-69
2022/11/07 07:00:42;;;;;;;7.43;5.72;;;;;;;6.82;83.88;100764.72;7396535;19;20011;-69
2022/11/07 07:03:12;;;;;;;8.77;5.90;;;;;;;6.82;83.63;100762.13;7394558;19;20018;-69
2022/11/07 07:05:41;;;;;;;9.90;5.88;;;;;;;6.83;83.78;100767.31;7394820;19;20010;-69
2022/11/07 07:08:11;;;;;;;6.65;5.30;;;;;;;6.84;83.71;100776.03;7395698;19;20022;-69
2022/11/07 07:10:44;;;;;;;6.70;6.00;;;;;;;6.84;84.04;100776.03;7395763;19;20070;-70
2022/11/07 07:13:15;;;;;;;7.50;5.95;;;;;;;6.84;84.04;100773.41;7395267;19;20018;-70
2022/11/07 07:15:54;;;;;;;9.55;6.25;;;;;;;6.86;83.98;100769.03;7396497;19;20012;-70
2022/11/07 07:18:23;;;;;;;8.65;6.78;;;;;;;6.89;84.16;100782.06;7396921;19;20070;-69
2022/11/07 07:20:53;;;;;;;10.85;7.15;;;;;;;6.90;84.16;100770.78;7394292;19;20545;-69
2022/11/07 07:23:22;;;;;;;7.00;5.60;;;;;;;6.92;84.39;100776.81;7395299;19;20035;-69
2022/11/07 07:25:51;;;;;;;7.47;5.85;;;;;;;6.94;84.31;100771.63;7395403;19;20035;-68
2022/11/07 07:28:20;;;;;;;6.95;5.53;;;;;;;6.94;84.35;100777.69;7395233;19;20029;-71
2022/11/07 07:30:51;;;;;;;7.43;5.47;;;;;;;6.97;84.47;100777.66;7395911;19;20090;-71
2022/11/07 07:33:19;;;;;;;7.60;5.55;;;;;;;7.01;84.09;100792.44;7394731;19;20086;-71
2022/11/07 07:35:48;;;;;;;7.82;5.80;;;;;;;7.04;84.26;100782.84;7394560;19;20090;-71
2022/11/07 07:38:16;;;;;;;6.75;5.68;;;;;;;7.06;84.44;100789.78;7394586;19;20007;-71
2022/11/07 07:40:45;;;;;;;6.90;5.55;;;;;;;7.09;84.18;100776.72;7393742;19;20022;-72
2022/11/07 07:43:13;;;;;;;7.20;5.72;;;;;;;7.13;84.41;100777.59;7394180;19;20015;-70
2022/11/07 07:45:41;;;;;;;6.90;5.90;;;;;;;7.16;84.24;100773.19;7392870;19;20369;-71
2022/11/07 07:48:12;;;;;;;7.13;5.93;;;;;;;7.20;84.17;100766.22;7395614;19;20039;-71
2022/11/07 07:50:41;;;;;;;7.85;5.60;;;;;;;7.22;84.10;100761.84;7393998;19;20433;-70
2022/11/07 07:53:09;;;;;;;7.78;6.22;;;;;;;7.26;84.09;100768.78;7393917;19;20074;-71
2022/11/07 07:55:38;;;;;;;8.55;5.50;;;;;;;7.29;84.21;100755.72;7394809;19;20439;-70
2022/11/07 07:58:06;;;;;;;10.00;5.22;;;;;;;7.32;83.95;100760.91;7393234;19;20011;-72
2022/11/07 08:00:35;;;;;;;6.45;5.00;;;;;;;7.37;83.96;100762.59;7392472;19;20545;-71
2022/11/07 08:03:04;;;;;;;8.52;5.20;;;;;;;7.41;84.13;100767.78;7394396;19;20020;-71
2022/11/07 08:05:36;;;;;;;6.13;4.72;;;;;;;7.47;84.02;100764.28;7392517;19;20010;-71
2022/11/07 08:08:06;;;;;;;6.88;4.85;;;;;;;7.53;84.02;100766.81;7394911;19;20018;-71
2022/11/07 08:10:35;;;;;;;7.35;5.32;;;;;;;7.58;83.79;100759.81;7394324;19;20018;-71
2022/11/07 08:13:03;;;;;;;5.35;4.53;;;;;;;7.64;83.79;100772.78;7392092;19;20011;-71
2022/11/07 08:15:32;;;;;;;6.55;4.50;;;;;;;7.70;83.60;100768.44;7393599;19;20032;-69
2022/11/07 08:18:03;;;;;;;9.82;6.68;;;;;;;7.74;83.48;100770.13;7391755;19;20077;-71
2022/11/07 08:20:31;;;;;;;10.30;6.82;;;;;;;7.77;83.50;100770.06;7394325;19;20026;-71
2022/11/07 08:23:07;;;;;;;11.85;8.15;;;;;;;7.80;83.30;100778.75;7393142;19;20549;-70
2022/11/07 08:25:37;;;;;;;12.73;10.73;;;;;;;7.82;83.16;100774.41;7392289;19;20015;-70
2022/11/07 08:28:07;;;;;;;10.95;9.52;;;;;;;7.86;83.38;100772.63;7391496;19;20078;-70
2022/11/07 08:30:35;;;;;;;9.48;8.48;;;;;;;7.88;83.13;100769.97;7393577;19;20528;-70
2022/11/07 08:33:04;;;;;;;7.72;6.38;;;;;;;7.90;83.09;100763.88;7393517;19;20078;-71
2022/11/07 08:35:33;;;;;;;8.68;5.00;;;;;;;7.93;83.29;100769.03;7393905;19;20025;-71
2022/11/07 08:38:02;;;;;;;7.03;4.93;;;;;;;7.95;83.30;100767.28;7392025;19;20086;-72
2022/11/07 08:40:33;;;;;;;5.65;4.53;;;;;;;8.00;83.21;100767.25;7393544;19;20516;-72
2022/11/07 08:43:01;;;;;;;6.53;4.70;;;;;;;8.05;83.27;100768.06;7393695;19;20014;-70
2022/11/07 08:45:30;;;;;;;5.05;4.18;;;;;;;8.09;83.29;100768.91;7393841;19;20350;-72
2022/11/07 08:47:59;;;;;;;6.57;4.60;;;;;;;8.14;83.46;100774.94;7394923;19;20082;-71
2022/11/07 08:50:29;;;;;;;7.05;4.10;;;;;;;8.20;83.26;100774.00;7393491;19;20085;-71
2022/11/07 08:52:58;;;;;;;6.80;5.07;;;;;;;8.25;83.40;100778.28;7393637;19;20019;-73
2022/11/07 08:55:26;;;;;;;5.35;3.67;;;;;;;8.31;83.28;100780.84;7391476;19;20011;-72
2022/11/07 08:58:00;;;;;;;5.72;3.92;;;;;;;8.39;83.40;100783.34;7391506;19;20031;-72
2022/11/07 09:00:29;;;;;;;5.90;4.10;;;;;;;8.46;83.03;100779.78;7391977;19;20018;-71
2022/11/07 09:02:57;;;;;;;5.30;3.42;;;;;;;8.54;83.19;100786.69;7390752;19;20347;-71
2022/11/07 09:05:26;;;;;;;5.68;3.55;;;;;;;8.63;83.17;100789.19;7392578;19;20078;-72
2022/11/07 09:08:01;;;;;;;6.00;3.85;;;;;;;8.72;82.87;100778.63;7399978;19;20077;-71
2022/11/07 09:10:29;;;;;;;4.78;3.13;;;;;;;8.80;82.73;100781.97;7401026;19;20073;-70
2022/11/07 09:13:00;;;;;;;4.40;2.83;;;;;;;8.93;82.71;100781.81;7397870;19;20082;-71
2022/11/07 09:15:29;;;;;;;4.35;3.33;;;;;;;9.03;82.65;100772.06;7400944;19;20014;-71
2022/11/07 09:17:57;;;;;;;5.28;3.35;;;;;;;9.17;82.85;100772.72;7398207;19;20023;-70
2022/11/07 09:20:26;;;;;;;3.63;2.92;;;;;;;9.30;82.18;100778.63;7397441;19;20110;-69
2022/11/07 09:22:57;;;;;;;3.15;2.70;;;;;;;9.41;81.90;100775.84;7397987;19;20010;-70
2022/11/07 09:25:27;;;;;;;5.50;2.53;;;;;;;9.54;81.45;100780.00;7400621;19;20011;-70
2022/11/07 09:27:57;;;;;;;4.30;2.78;;;;;;;9.65;80.97;100777.19;7397793;19;20018;-71
2022/11/07 09:30:28;;;;;;;3.78;2.40;;;;;;;9.75;80.68;100776.13;7397628;19;20355;-72
2022/11/07 09:32:58;;;;;;;3.83;2.55;;;;;;;9.89;80.50;100773.25;7397109;19;20011;-70
2022/11/07 09:35:27;;;;;;;3.95;2.38;;;;;;;9.99;80.24;100781.81;7399642;19;20018;-70
2022/11/07 09:37:55;;;;;;;3.65;2.35;;;;;;;10.09;79.86;100778.13;7398025;19;20023;-71
2022/11/07 09:40:43;;;;;;;3.78;2.08;;;;;;;10.19;79.07;100784.06;7399264;19;20022;-71
2022/11/07 09:43:27;;;;;;;3.45;2.08;;;;;;;10.30;79.05;100788.22;7397523;19;20384;-71
2022/11/07 09:46:02;;;;;;;;;;;;;;;10.38;78.43;100783.72;7398192;19;20014;-71
2022/11/07 09:48:40;;;;;;;3.58;2.03;;;;;;;10.47;78.53;100795.78;7399992;19;19919;-70
2022/11/07 09:51:16;;;;;;;4.70;2.30;;;;;;;10.53;78.08;100786.03;7399203;19;20026;-70
2022/11/07 09:53:49;;;;;;;3.38;1.92;;;;;;;10.60;78.04;100794.63;7397943;19;20018;-71
2022/11/07 09:56:17;;;;;;;3.30;1.70;;;;;;;10.69;78.01;100786.59;7396763;19;20014;-70
2022/11/07 09:58:53;;;;;;;5.22;2.10;;;;;;;10.76;77.34;100784.69;7396744;19;20015;-70
2022/11/07 10:01:24;;;;;;;4.15;2.13;;;;;;;10.82;76.86;100787.16;7397179;19;20351;-70
2022/11/07 10:03:53;;;;;;;5.75;2.15;;;;;;;10.89;76.92;100783.53;7397379;19;20434;-71
2022/11/07 10:06:54;;;;;;;4.05;1.90;;;;;;;10.98;76.58;100794.69;7398614;19;20100;-70
2022/11/07 10:09:32;;;;;;;3.45;2.03;;;;;;;11.04;75.91;100795.41;7398683;19;20081;-70
2022/11/07 10:12:10;;;;;;;5.80;1.90;;;;;;;11.10;75.94;100807.56;7398793;19;20090;-71
2022/11/07 10:14:50;;;;;;;3.22;1.95;;;;;;;11.18;75.88;100802.13;7397066;19;20078;-70
2022/11/07 10:17:31;;;;;;;4.15;1.60;;;;;;;11.24;75.48;100810.72;7397795;19;20021;-71
2022/11/07 10:20:14;;;;;;;3.20;1.70;;;;;;;11.30;74.83;100806.19;7398501;19;20074;-71
2022/11/07 10:22:54;;;;;;;4.10;1.60;;;;;;;11.35;74.97;100804.34;7396499;19;20082;-71
2022/11/07 10:25:28;;;;;;;3.20;1.50;;;;;;;11.40;75.06;100807.75;7398326;19;20567;-71
2022/11/07 10:28:10;;;;;;;4.00;1.90;;;;;;;11.46;74.45;100801.47;7397471;19;20021;-71
2022/11/07 10:30:39;;;;;;;2.40;1.70;;;;;;;11.51;75.31;100800.47;7399163;19;20415;-71
2022/11/07 10:33:22;;;;;;;6.38;1.90;;;;;;;11.58;74.59;100807.25;7397504;19;20035;-71
2022/11/07 10:35:56;;;;;;;4.63;1.50;;;;;;;11.62;74.49;100791.44;7398098;19;20035;-72
2022/11/07 10:38:27;;;;;;;;;;;;;;;11.68;73.97;100799.16;7396534;19;20030;-71
2022/11/07 10:40:56;;;;;;;3.63;1.50;;;;;;;11.73;73.95;100799.91;7395118;19;19922;-71
2022/11/07 10:43:32;;;;;;;2.65;1.27;;;;;;;11.78;73.95;100800.66;7396574;19;20082;-71
2022/11/07 10:46:03;;;;;;;2.45;1.35;;;;;;;11.84;73.09;100802.25;7396901;19;20481;-71
2022/11/07 10:48:34;;;;;;;5.13;1.55;;;;;;;11.89;73.33;100795.97;7396600;19;20512;-70
2022/11/07 10:51:02;;;;;;;4.15;1.63;;;;;;;11.96;73.23;100786.19;7395294;19;20070;-71
2022/11/07 10:53:31;;;;;;;2.58;1.42;;;;;;;12.03;73.35;100781.63;7396409;19;20018;-71
2022/11/07 10:56:00;;;;;;;6.63;1.80;;;;;;;12.08;72.64;100785.00;7397336;19;20530;-70
2022/11/07 10:58:30;;;;;;;2.80;1.77;;;;;;;12.14;72.72;100783.97;7395366;19;20082;-71
2022/11/07 11:01:02;;;;;;;3.22;1.50;;;;;;;12.20;72.83;100779.38;7395715;19;20032;-71
2022/11/07 11:03:35;;;;;;;3.10;1.70;;;;;;;12.27;72.15;100789.75;7395133;19;20014;-71
2022/11/07 11:06:12;;;;;;;3.00;1.65;;;;;;;12.34;72.37;100780.78;7394946;19;20017;-71
2022/11/07 11:08:41;;;;;;;5.13;1.77;;;;;;;12.39;72.24;100778.88;7396826;19;20018;-71
2022/11/07 11:11:17;;;;;;;2.28;1.40;;;;;;;12.45;70.78;100778.69;7395104;19;20484;-71
2022/11/07 11:13:45;;;;;;;3.17;1.50;;;;;;;12.52;71.57;100780.25;7394965;19;20025;-71
2022/11/07 11:16:29;;;;;;;6.13;1.65;;;;;;;12.59;70.95;100772.19;7393706;19;20429;-72
2022/11/07 11:19:02;;;;;;;4.03;1.77;;;;;;;12.66;70.67;100774.59;7393923;19;20432;-71
2022/11/07 11:21:41;;;;;;;3.92;1.30;;;;;;;12.73;68.88;100770.00;7394616;19;20018;-72
2022/11/07 11:24:23;;;;;;;3.92;1.92;;;;;;;12.80;68.90;100768.91;7395746;19;20027;-73
2022/11/07 11:26:53;;;;;;;3.63;1.42;;;;;;;12.86;69.05;100779.25;7396284;19;20074;-72
2022/11/07 11:29:31;;;;;;;4.78;2.00;;;;;;;12.87;68.74;100775.69;7392430;19;20019;-70
2022/11/07 11:32:02;;;;;;;3.00;1.48;;;;;;;12.86;68.61;100779.25;7395226;19;20108;-72
2022/11/07 11:34:44;;;;;;;3.50;1.67;;;;;;;12.90;67.88;100782.63;7394511;19;20015;-71
2022/11/07 11:37:17;;;;;;;6.28;2.78;;;;;;;12.90;68.49;100777.34;7393354;19;20018;-71
2022/11/07 11:39:51;;;;;;;2.88;1.52;;;;;;;12.86;68.01;100778.38;7397972;19;20058;-71
2022/11/07 11:42:32;;;;;;;5.63;2.65;;;;;;;12.85;68.08;100782.78;7396935;19;20019;-73
2022/11/07 11:45:10;;;;;;;5.65;1.80;;;;;;;12.81;68.35;100783.75;7394196;19;20507;-71
2022/11/07 11:47:41;;;;;;;2.78;1.60;;;;;;;12.79;67.91;100777.69;7393089;19;20481;-73
2022/11/07 11:50:18;;;;;;;2.30;1.30;;;;;;;12.77;68.44;100771.59;7394617;19;20085;-68
2022/11/07 11:52:47;;;;;;;9.88;2.67;;;;;;;12.76;68.73;100771.66;7395177;19;20090;-68
2022/11/07 11:55:17;;;;;;;3.28;1.63;;;;;;;12.75;68.86;100785.72;7395328;19;20074;-69
2022/11/07 11:57:59;;;;;;;3.58;1.58;;;;;;;12.69;68.14;100782.38;7394081;19;20032;-68